Seafalcon — 9HA2814 — position and weather

sailwx.info

Track history (hours):
 
Tides and Currents Weather Stations Pressure Air Temp Water Temp Dewpoint Dewpoint Depression Visibility Wind Speed Wind Dir Waves Ship Positions

Seafalcon

Last reported at 2017-May-25 12:44 UTC. Time now 2017-Jul-22 20:32 UTC.
Position N 01°15' E 104°02'.
Warning: this ship's position is 58 days out of date.

Length 250 m; draft 9.3 m.

Type: Ship (hazmat cat A). MMSI: 256078000.

Date/timePositionNaut miles runAvg speedWind from/ knotsBaromVisibWave heightAir tempDewpointWater temp
2017-May-25 12:44N 01°15' E 104°02'310.4
2017-May-25 12:29N 01°14' E 103°60'511.4
2017-May-25 12:00N 01°12' E 103°55'510.9
2017-May-25 11:30N 01°10' E 103°50'611.2
2017-May-25 11:01N 01°07' E 103°45'612.4
2017-May-25 10:30N 01°03' E 103°40'510.9
2017-May-25 10:00N 01°05' E 103°35'611.0
2017-May-25 09:30N 01°08' E 103°30'5 9.2
2017-May-25 09:00N 01°13' E 103°30'2 0.1
2017-May-23 22:07N 01°15' E 103°30'0 0.0
2017-May-23 21:51N 01°15' E 103°30'0 0.1
2017-May-23 21:31N 01°15' E 103°30'0 0.1
2017-May-23 21:00N 01°15' E 103°30'0 0.3
2017-May-23 20:31N 01°15' E 103°30'1 1.9
2017-May-23 19:59N 01°15' E 103°31'2 3.6
2017-May-23 19:31N 01°13' E 103°32'2 4.6
2017-May-23 18:59N 01°12' E 103°34'2 4.6
2017-May-23 18:31N 01°12' E 103°36'3 6.9
2017-May-23 18:00N 01°12' E 103°40'2 3.9
2017-May-23 17:31N 01°13' E 103°41'5 9.0
2017-May-23 17:00N 01°16' E 103°45'1 2.6
2017-May-23 16:30N 01°17' E 103°44'0 0.0
2017-May-23 16:00N 01°17' E 103°44'0 0.0
2017-May-23 15:30N 01°17' E 103°44'0 0.0
2017-May-23 15:00N 01°17' E 103°44'0 0.0
2017-May-23 14:30N 01°17' E 103°44'0 0.0
2017-May-23 13:30N 01°17' E 103°44'0 0.0
2017-May-23 12:57N 01°17' E 103°44'0 0.0
2017-May-23 12:30N 01°17' E 103°44'0 0.0
2017-May-23 12:00N 01°17' E 103°44'0 0.0
2017-May-23 11:24N 01°17' E 103°44'0 0.0
2017-May-23 11:00N 01°17' E 103°44'0 0.0
2017-May-23 10:27N 01°17' E 103°44'0 0.0
2017-May-23 10:00N 01°17' E 103°44'0 0.0
2017-May-23 09:27N 01°17' E 103°44'0 0.0
2017-May-23 09:00N 01°17' E 103°44'0 0.0
2017-May-23 08:30N 01°17' E 103°44'0 0.0
2017-May-23 07:57N 01°17' E 103°44'0 0.0
2017-May-23 07:30N 01°17' E 103°44'0 0.0
2017-May-23 07:00N 01°17' E 103°44'0 0.0
2017-May-23 06:30N 01°17' E 103°44'0 0.0
2017-May-23 05:57N 01°17' E 103°44'0 0.0
2017-May-23 05:30N 01°17' E 103°44'0 0.0
2017-May-23 05:00N 01°17' E 103°44'0 0.0
2017-May-23 04:30N 01°17' E 103°44'0 0.0
2017-May-23 04:00N 01°17' E 103°44'0 0.0
2017-May-23 03:24N 01°17' E 103°44'0 0.0
2017-May-23 03:00N 01°17' E 103°44'0 0.0
2017-May-23 02:30N 01°17' E 103°44'0 0.0
2017-May-23 02:00N 01°17' E 103°44'0 0.0
2017-May-23 01:30N 01°17' E 103°44'0 0.0
2017-May-23 01:00N 01°17' E 103°44'0 0.0
2017-May-23 00:30N 01°17' E 103°44'0 0.0
2017-May-22 23:57N 01°17' E 103°44'0 0.0
2017-May-22 23:30N 01°17' E 103°44'0 0.0
2017-May-22 23:00N 01°17' E 103°44'0 0.0
2017-May-22 22:30N 01°17' E 103°44'0 0.0
2017-May-22 21:57N 01°17' E 103°44'0 0.0
2017-May-22 21:30N 01°17' E 103°44'0 0.0
2017-May-22 20:57N 01°17' E 103°44'0 0.0
2017-May-22 20:30N 01°17' E 103°44'0 0.0
2017-May-22 19:57N 01°17' E 103°44'0 0.0
2017-May-22 19:30N 01°17' E 103°44'0 0.0
2017-May-22 19:00N 01°17' E 103°44'0 0.0
2017-May-22 18:30N 01°17' E 103°44'0 0.0
2017-May-22 18:00N 01°17' E 103°44'0 0.0
2017-May-22 17:30N 01°17' E 103°44'0 0.0
2017-May-22 17:00N 01°17' E 103°44'0 0.0
2017-May-22 16:30N 01°17' E 103°44'0 0.0
2017-May-22 15:57N 01°17' E 103°44'0 0.0
2017-May-22 15:27N 01°17' E 103°44'0 0.0
2017-May-22 14:57N 01°17' E 103°44'0 0.0
2017-May-22 14:00N 01°17' E 103°44'0 0.0
2017-May-22 13:30N 01°17' E 103°44'0 0.0
2017-May-22 13:00N 01°17' E 103°44'0 0.0
2017-May-22 12:30N 01°17' E 103°44'0 0.0
2017-May-22 12:00N 01°17' E 103°44'0 0.0
2017-May-22 11:30N 01°17' E 103°44'0 0.0
2017-May-22 11:00N 01°17' E 103°44'0 0.0
2017-May-22 10:30N 01°17' E 103°44'0 0.0
2017-May-22 10:00N 01°17' E 103°44'0 0.0
2017-May-22 09:30N 01°17' E 103°44'0 0.0
2017-May-22 09:00N 01°17' E 103°44'0 0.0
2017-May-22 08:24N 01°17' E 103°44'0 0.0
2017-May-22 08:00N 01°17' E 103°44'0 0.0
2017-May-22 07:30N 01°17' E 103°44'0 0.0
2017-May-22 07:00N 01°17' E 103°44'0 0.0
2017-May-22 06:30N 01°17' E 103°44'0 0.0
2017-May-22 06:00N 01°17' E 103°44'0 0.0
2017-May-22 05:30N 01°17' E 103°44'0 0.0
2017-May-22 05:00N 01°17' E 103°44'0 0.0
2017-May-22 04:30N 01°17' E 103°44'0 0.0
2017-May-22 03:57N 01°17' E 103°44'0 0.0
2017-May-22 03:30N 01°17' E 103°44'0 0.0
2017-May-22 03:00N 01°17' E 103°44'0 0.0
2017-May-22 02:30N 01°17' E 103°44'0 0.0
2017-May-22 02:00N 01°17' E 103°44'0 0.0
2017-May-22 01:30N 01°17' E 103°44'0 0.0
2017-May-22 01:00N 01°17' E 103°44'0 0.0
2017-May-22 00:24N 01°17' E 103°44'0 0.0
2017-May-21 23:57N 01°17' E 103°44'0 0.0
2017-May-21 23:30N 01°17' E 103°44'0 0.0
2017-May-21 23:00N 01°17' E 103°44'0 0.0
2017-May-21 22:30N 01°17' E 103°44'0 0.0
2017-May-21 21:57N 01°17' E 103°44'0 0.0
2017-May-21 21:30N 01°17' E 103°44'0 0.0
2017-May-21 20:54N 01°17' E 103°44'0 0.0
2017-May-21 20:30N 01°17' E 103°44'0 0.0
2017-May-21 19:57N 01°17' E 103°44'0 0.0
2017-May-21 19:30N 01°17' E 103°44'0 0.0
2017-May-21 19:00N 01°17' E 103°44'0 0.0
2017-May-21 18:30N 01°17' E 103°44'0 0.0
2017-May-21 18:00N 01°17' E 103°44'0 0.0
2017-May-21 17:30N 01°17' E 103°44'0 0.0
2017-May-21 16:57N 01°17' E 103°44'0 0.0
2017-May-21 16:30N 01°17' E 103°44'0 0.0
2017-May-21 15:54N 01°17' E 103°44'0 0.0
2017-May-21 15:30N 01°17' E 103°44'0 0.0
2017-May-21 14:57N 01°17' E 103°44'0 0.0
2017-May-21 14:30N 01°17' E 103°44'0 0.0
2017-May-21 13:30N 01°17' E 103°44'0 0.0
2017-May-21 12:57N 01°17' E 103°44'0 0.0
2017-May-21 12:30N 01°17' E 103°44'0 0.0
2017-May-21 11:57N 01°17' E 103°44'0 0.0
2017-May-21 11:30N 01°17' E 103°44'0 0.0
2017-May-21 10:57N 01°17' E 103°44'0 0.0
2017-May-21 10:30N 01°17' E 103°44'0 0.0
2017-May-21 10:00N 01°17' E 103°44'0 0.0
2017-May-21 09:30N 01°17' E 103°44'0 0.0
2017-May-21 08:57N 01°17' E 103°44'0 0.0
2017-May-21 08:30N 01°17' E 103°44'0 0.0
2017-May-21 07:48N 01°17' E 103°44'0 0.0
2017-May-21 07:30N 01°17' E 103°44'0 0.0
2017-May-21 06:54N 01°17' E 103°44'0 0.0
2017-May-21 06:30N 01°17' E 103°44'0 0.0
2017-May-21 05:57N 01°17' E 103°44'0 0.0
2017-May-21 05:30N 01°17' E 103°44'0 0.0
2017-May-21 04:57N 01°17' E 103°44'0 0.0
2017-May-21 04:30N 01°17' E 103°44'0 0.0
2017-May-21 03:57N 01°17' E 103°44'0 0.0
2017-May-21 03:30N 01°17' E 103°44'0 0.0
2017-May-21 02:54N 01°17' E 103°44'0 0.0
2017-May-21 02:30N 01°17' E 103°44'0 0.0
2017-May-21 01:54N 01°17' E 103°44'0 0.0
2017-May-21 01:27N 01°17' E 103°44'0 0.0
2017-May-21 01:00N 01°17' E 103°44'0 0.0
2017-May-21 00:30N 01°17' E 103°44'0 0.0
2017-May-21 00:00N 01°17' E 103°44'0 0.0
2017-May-20 23:30N 01°17' E 103°44'0 0.0
2017-May-20 22:57N 01°17' E 103°44'0 0.0
2017-May-20 22:30N 01°17' E 103°44'0 0.0
2017-May-20 21:57N 01°17' E 103°44'0 0.0
2017-May-20 21:30N 01°17' E 103°44'0 0.0
2017-May-20 20:57N 01°17' E 103°44'0 0.0
2017-May-20 20:27N 01°17' E 103°44'0 0.0
2017-May-20 19:57N 01°17' E 103°44'0 0.0
2017-May-20 19:30N 01°17' E 103°44'0 0.0
2017-May-20 18:57N 01°17' E 103°44'0 0.0
2017-May-20 18:27N 01°17' E 103°44'0 0.0
2017-May-20 17:57N 01°17' E 103°44'0 0.0
2017-May-20 17:27N 01°17' E 103°44'0 0.0
2017-May-20 16:57N 01°17' E 103°44'0 0.0
2017-May-20 16:30N 01°17' E 103°44'0 0.0
2017-May-20 15:54N 01°17' E 103°44'0 0.0
2017-May-20 15:30N 01°17' E 103°44'0 0.0
2017-May-20 14:57N 01°17' E 103°44'0 0.0
2017-May-20 13:57N 01°17' E 103°44'0 0.0
2017-May-20 13:27N 01°17' E 103°44'0 0.0
2017-May-20 12:54N 01°17' E 103°44'0 0.0
2017-May-20 12:27N 01°17' E 103°44'0 0.0
2017-May-20 11:57N 01°17' E 103°44'0 0.0
2017-May-20 11:27N 01°17' E 103°44'0 0.0
2017-May-20 10:57N 01°17' E 103°44'0 0.0
2017-May-20 10:24N 01°17' E 103°44'0 0.0
2017-May-20 09:57N 01°17' E 103°44'0 0.0
2017-May-20 09:30N 01°17' E 103°44'0 0.0
2017-May-20 08:57N 01°17' E 103°44'0 0.0
2017-May-20 08:30N 01°17' E 103°44'0 0.0
2017-May-20 07:57N 01°17' E 103°44'0 0.0
2017-May-20 07:30N 01°17' E 103°44'0 0.0
2017-May-20 06:57N 01°17' E 103°44'0 0.0
2017-May-20 06:30N 01°17' E 103°44'0 0.0
2017-May-20 05:57N 01°17' E 103°44'0 0.0
2017-May-20 05:30N 01°17' E 103°44'0 0.0
2017-May-20 04:57N 01°17' E 103°44'0 0.0
2017-May-20 04:30N 01°17' E 103°44'0 0.0
2017-May-20 03:57N 01°17' E 103°44'0 0.0
2017-May-20 03:30N 01°17' E 103°44'0 0.0
2017-May-20 02:57N 01°17' E 103°44'0 0.0
2017-May-20 02:30N 01°17' E 103°44'0 0.0
2017-May-20 02:00N 01°17' E 103°44'0 0.0
2017-May-20 01:30N 01°17' E 103°44'0 0.0
2017-May-20 00:57N 01°17' E 103°44'0 0.0
2017-May-20 00:30N 01°17' E 103°44'0 0.0
2017-May-20 00:00N 01°17' E 103°44'0 0.0
2017-May-19 23:27N 01°17' E 103°44'0 0.0
2017-May-19 23:00N 01°17' E 103°44'0 0.0
2017-May-19 22:30N 01°17' E 103°44'0 0.0
2017-May-19 22:00N 01°17' E 103°44'0 0.0
2017-May-19 21:30N 01°17' E 103°44'0 0.0
2017-May-19 21:00N 01°17' E 103°44'0 0.0
2017-May-19 20:27N 01°17' E 103°44'0 0.0
2017-May-19 20:00N 01°17' E 103°44'0 0.0
2017-May-19 19:30N 01°17' E 103°44'0 0.0
2017-May-19 19:00N 01°17' E 103°44'0 0.0
2017-May-19 18:30N 01°17' E 103°44'0 0.0
2017-May-19 18:00N 01°17' E 103°44'0 0.0
2017-May-19 17:27N 01°17' E 103°44'0 0.0
2017-May-19 17:00N 01°17' E 103°44'0 0.0
2017-May-19 16:27N 01°17' E 103°44'0 0.2
2017-May-19 16:00N 01°17' E 103°44'1 2.3
2017-May-19 15:31N 01°17' E 103°45'2 4.4
2017-May-19 15:01N 01°15' E 103°44'4 3.8
2017-May-19 13:59N 01°12' E 103°41'0 0.1
2017-May-19 13:29N 01°12' E 103°41'0 0.0
2017-May-19 12:47N 01°12' E 103°41'0 0.0
2017-May-19 12:29N 01°12' E 103°41'0 0.0
2017-May-19 11:56N 01°12' E 103°41'1 2.8
2017-May-19 11:30N 01°12' E 103°40'3 5.5
2017-May-19 11:00N 01°12' E 103°37'4 8.7
2017-May-19 10:30N 01°13' E 103°33'3 6.5
2017-May-19 10:00N 01°15' E 103°30'1 0.1
2017-May-19 03:21N 01°15' E 103°30'0 0.2
2017-May-19 03:00N 01°15' E 103°30'0 0.0
2017-May-19 01:18N 01°15' E 103°30'0 0.0
2017-May-18 19:42N 01°15' E 103°30'0 0.0
2017-May-18 19:09N 01°15' E 103°30'0 0.0
2017-May-18 18:57N 01°15' E 103°30'0 0.0
2017-May-18 10:45N 01°15' E 103°30'0 0.1
2017-May-18 10:30N 01°15' E 103°30'0 0.0
2017-May-18 04:42N 01°15' E 103°30'0 0.1
2017-May-18 04:24N 01°15' E 103°30'0 0.1
2017-May-18 03:51N 01°15' E 103°30'0 0.0
2017-May-18 01:55N 01°15' E 103°30'0 0.0
2017-May-18 01:31N 01°15' E 103°30'0 0.1
2017-May-18 01:00N 01°15' E 103°30'0 0.7
2017-May-18 00:30N 01°15' E 103°30'2 4.4
2017-May-18 00:01N 01°14' E 103°32'1 1.6
2017-May-17 23:31N 01°14' E 103°32'3 5.1
2017-May-17 22:59N 01°12' E 103°35'4 7.8
2017-May-17 22:30N 01°12' E 103°39'4 8.5
2017-May-17 21:59N 01°10' E 103°42'5 9.8
2017-May-17 21:30N 01°10' E 103°47'611.2
2017-May-17 21:00N 01°12' E 103°52'611.3
2017-May-17 20:30N 01°15' E 103°57'510.4
2017-May-17 20:00N 01°16' E 104°02'  
Track history (hours):
 
Tides and Currents Weather Stations Pressure Air Temp Water Temp Dewpoint Dewpoint Depression Visibility Wind Speed Wind Dir Waves Ship Positions

Seafalcon

Last reported at 2017-May-25 12:44 UTC. Time now 2017-Jul-22 20:32 UTC.
Position N 01°15' E 104°02'.
Warning: this ship's position is 58 days out of date.

Length 250 m; draft 9.3 m.

Type: Ship (hazmat cat A). MMSI: 256078000.

Date/timePositionNaut miles runAvg speedWind from/ knotsBaromVisibWave heightAir tempDewpointWater temp
2017-May-25 12:44N 01°15' E 104°02'310.4
2017-May-25 12:29N 01°14' E 103°60'511.4
2017-May-25 12:00N 01°12' E 103°55'510.9
2017-May-25 11:30N 01°10' E 103°50'611.2
2017-May-25 11:01N 01°07' E 103°45'612.4
2017-May-25 10:30N 01°03' E 103°40'510.9
2017-May-25 10:00N 01°05' E 103°35'611.0
2017-May-25 09:30N 01°08' E 103°30'5 9.2
2017-May-25 09:00N 01°13' E 103°30'2 0.1
2017-May-23 22:07N 01°15' E 103°30'0 0.0
2017-May-23 21:51N 01°15' E 103°30'0 0.1
2017-May-23 21:31N 01°15' E 103°30'0 0.1
2017-May-23 21:00N 01°15' E 103°30'0 0.3
2017-May-23 20:31N 01°15' E 103°30'1 1.9
2017-May-23 19:59N 01°15' E 103°31'2 3.6
2017-May-23 19:31N 01°13' E 103°32'2 4.6
2017-May-23 18:59N 01°12' E 103°34'2 4.6
2017-May-23 18:31N 01°12' E 103°36'3 6.9
2017-May-23 18:00N 01°12' E 103°40'2 3.9
2017-May-23 17:31N 01°13' E 103°41'5 9.0
2017-May-23 17:00N 01°16' E 103°45'1 2.6
2017-May-23 16:30N 01°17' E 103°44'0 0.0
2017-May-23 16:00N 01°17' E 103°44'0 0.0
2017-May-23 15:30N 01°17' E 103°44'0 0.0
2017-May-23 15:00N 01°17' E 103°44'0 0.0
2017-May-23 14:30N 01°17' E 103°44'0 0.0
2017-May-23 13:30N 01°17' E 103°44'0 0.0
2017-May-23 12:57N 01°17' E 103°44'0 0.0
2017-May-23 12:30N 01°17' E 103°44'0 0.0
2017-May-23 12:00N 01°17' E 103°44'0 0.0
2017-May-23 11:24N 01°17' E 103°44'0 0.0
2017-May-23 11:00N 01°17' E 103°44'0 0.0
2017-May-23 10:27N 01°17' E 103°44'0 0.0
2017-May-23 10:00N 01°17' E 103°44'0 0.0
2017-May-23 09:27N 01°17' E 103°44'0 0.0
2017-May-23 09:00N 01°17' E 103°44'0 0.0
2017-May-23 08:30N 01°17' E 103°44'0 0.0
2017-May-23 07:57N 01°17' E 103°44'0 0.0
2017-May-23 07:30N 01°17' E 103°44'0 0.0
2017-May-23 07:00N 01°17' E 103°44'0 0.0
2017-May-23 06:30N 01°17' E 103°44'0 0.0
2017-May-23 05:57N 01°17' E 103°44'0 0.0
2017-May-23 05:30N 01°17' E 103°44'0 0.0
2017-May-23 05:00N 01°17' E 103°44'0 0.0
2017-May-23 04:30N 01°17' E 103°44'0 0.0
2017-May-23 04:00N 01°17' E 103°44'0 0.0
2017-May-23 03:24N 01°17' E 103°44'0 0.0
2017-May-23 03:00N 01°17' E 103°44'0 0.0
2017-May-23 02:30N 01°17' E 103°44'0 0.0
2017-May-23 02:00N 01°17' E 103°44'0 0.0
2017-May-23 01:30N 01°17' E 103°44'0 0.0
2017-May-23 01:00N 01°17' E 103°44'0 0.0
2017-May-23 00:30N 01°17' E 103°44'0 0.0
2017-May-22 23:57N 01°17' E 103°44'0 0.0
2017-May-22 23:30N 01°17' E 103°44'0 0.0
2017-May-22 23:00N 01°17' E 103°44'0 0.0
2017-May-22 22:30N 01°17' E 103°44'0 0.0
2017-May-22 21:57N 01°17' E 103°44'0 0.0
2017-May-22 21:30N 01°17' E 103°44'0 0.0
2017-May-22 20:57N 01°17' E 103°44'0 0.0
2017-May-22 20:30N 01°17' E 103°44'0 0.0
2017-May-22 19:57N 01°17' E 103°44'0 0.0
2017-May-22 19:30N 01°17' E 103°44'0 0.0
2017-May-22 19:00N 01°17' E 103°44'0 0.0
2017-May-22 18:30N 01°17' E 103°44'0 0.0
2017-May-22 18:00N 01°17' E 103°44'0 0.0
2017-May-22 17:30N 01°17' E 103°44'0 0.0
2017-May-22 17:00N 01°17' E 103°44'0 0.0
2017-May-22 16:30N 01°17' E 103°44'0 0.0
2017-May-22 15:57N 01°17' E 103°44'0 0.0
2017-May-22 15:27N 01°17' E 103°44'0 0.0
2017-May-22 14:57N 01°17' E 103°44'0 0.0
2017-May-22 14:00N 01°17' E 103°44'0 0.0
2017-May-22 13:30N 01°17' E 103°44'0 0.0
2017-May-22 13:00N 01°17' E 103°44'0 0.0
2017-May-22 12:30N 01°17' E 103°44'0 0.0
2017-May-22 12:00N 01°17' E 103°44'0 0.0
2017-May-22 11:30N 01°17' E 103°44'0 0.0
2017-May-22 11:00N 01°17' E 103°44'0 0.0
2017-May-22 10:30N 01°17' E 103°44'0 0.0
2017-May-22 10:00N 01°17' E 103°44'0 0.0
2017-May-22 09:30N 01°17' E 103°44'0 0.0
2017-May-22 09:00N 01°17' E 103°44'0 0.0
2017-May-22 08:24N 01°17' E 103°44'0 0.0
2017-May-22 08:00N 01°17' E 103°44'0 0.0
2017-May-22 07:30N 01°17' E 103°44'0 0.0
2017-May-22 07:00N 01°17' E 103°44'0 0.0
2017-May-22 06:30N 01°17' E 103°44'0 0.0
2017-May-22 06:00N 01°17' E 103°44'0 0.0
2017-May-22 05:30N 01°17' E 103°44'0 0.0
2017-May-22 05:00N 01°17' E 103°44'0 0.0
2017-May-22 04:30N 01°17' E 103°44'0 0.0
2017-May-22 03:57N 01°17' E 103°44'0 0.0
2017-May-22 03:30N 01°17' E 103°44'0 0.0
2017-May-22 03:00N 01°17' E 103°44'0 0.0
2017-May-22 02:30N 01°17' E 103°44'0 0.0
2017-May-22 02:00N 01°17' E 103°44'0 0.0
2017-May-22 01:30N 01°17' E 103°44'0 0.0
2017-May-22 01:00N 01°17' E 103°44'0 0.0
2017-May-22 00:24N 01°17' E 103°44'0 0.0
2017-May-21 23:57N 01°17' E 103°44'0 0.0
2017-May-21 23:30N 01°17' E 103°44'0 0.0
2017-May-21 23:00N 01°17' E 103°44'0 0.0
2017-May-21 22:30N 01°17' E 103°44'0 0.0
2017-May-21 21:57N 01°17' E 103°44'0 0.0
2017-May-21 21:30N 01°17' E 103°44'0 0.0
2017-May-21 20:54N 01°17' E 103°44'0 0.0
2017-May-21 20:30N 01°17' E 103°44'0 0.0
2017-May-21 19:57N 01°17' E 103°44'0 0.0
2017-May-21 19:30N 01°17' E 103°44'0 0.0
2017-May-21 19:00N 01°17' E 103°44'0 0.0
2017-May-21 18:30N 01°17' E 103°44'0 0.0
2017-May-21 18:00N 01°17' E 103°44'0 0.0
2017-May-21 17:30N 01°17' E 103°44'0 0.0
2017-May-21 16:57N 01°17' E 103°44'0 0.0
2017-May-21 16:30N 01°17' E 103°44'0 0.0
2017-May-21 15:54N 01°17' E 103°44'0 0.0
2017-May-21 15:30N 01°17' E 103°44'0 0.0
2017-May-21 14:57N 01°17' E 103°44'0 0.0
2017-May-21 14:30N 01°17' E 103°44'0 0.0
2017-May-21 13:30N 01°17' E 103°44'0 0.0
2017-May-21 12:57N 01°17' E 103°44'0 0.0
2017-May-21 12:30N 01°17' E 103°44'0 0.0
2017-May-21 11:57N 01°17' E 103°44'0 0.0
2017-May-21 11:30N 01°17' E 103°44'0 0.0
2017-May-21 10:57N 01°17' E 103°44'0 0.0
2017-May-21 10:30N 01°17' E 103°44'0 0.0
2017-May-21 10:00N 01°17' E 103°44'0 0.0
2017-May-21 09:30N 01°17' E 103°44'0 0.0
2017-May-21 08:57N 01°17' E 103°44'0 0.0
2017-May-21 08:30N 01°17' E 103°44'0 0.0
2017-May-21 07:48N 01°17' E 103°44'0 0.0
2017-May-21 07:30N 01°17' E 103°44'0 0.0
2017-May-21 06:54N 01°17' E 103°44'0 0.0
2017-May-21 06:30N 01°17' E 103°44'0 0.0
2017-May-21 05:57N 01°17' E 103°44'0 0.0
2017-May-21 05:30N 01°17' E 103°44'0 0.0
2017-May-21 04:57N 01°17' E 103°44'0 0.0
2017-May-21 04:30N 01°17' E 103°44'0 0.0
2017-May-21 03:57N 01°17' E 103°44'0 0.0
2017-May-21 03:30N 01°17' E 103°44'0 0.0
2017-May-21 02:54N 01°17' E 103°44'0 0.0
2017-May-21 02:30N 01°17' E 103°44'0 0.0
2017-May-21 01:54N 01°17' E 103°44'0 0.0
2017-May-21 01:27N 01°17' E 103°44'0 0.0
2017-May-21 01:00N 01°17' E 103°44'0 0.0
2017-May-21 00:30N 01°17' E 103°44'0 0.0
2017-May-21 00:00N 01°17' E 103°44'0 0.0
2017-May-20 23:30N 01°17' E 103°44'0 0.0
2017-May-20 22:57N 01°17' E 103°44'0 0.0
2017-May-20 22:30N 01°17' E 103°44'0 0.0
2017-May-20 21:57N 01°17' E 103°44'0 0.0
2017-May-20 21:30N 01°17' E 103°44'0 0.0
2017-May-20 20:57N 01°17' E 103°44'0 0.0
2017-May-20 20:27N 01°17' E 103°44'0 0.0
2017-May-20 19:57N 01°17' E 103°44'0 0.0
2017-May-20 19:30N 01°17' E 103°44'0 0.0
2017-May-20 18:57N 01°17' E 103°44'0 0.0
2017-May-20 18:27N 01°17' E 103°44'0 0.0
2017-May-20 17:57N 01°17' E 103°44'0 0.0
2017-May-20 17:27N 01°17' E 103°44'0 0.0
2017-May-20 16:57N 01°17' E 103°44'0 0.0
2017-May-20 16:30N 01°17' E 103°44'0 0.0
2017-May-20 15:54N 01°17' E 103°44'0 0.0
2017-May-20 15:30N 01°17' E 103°44'0 0.0
2017-May-20 14:57N 01°17' E 103°44'0 0.0
2017-May-20 13:57N 01°17' E 103°44'0 0.0
2017-May-20 13:27N 01°17' E 103°44'0 0.0
2017-May-20 12:54N 01°17' E 103°44'0 0.0
2017-May-20 12:27N 01°17' E 103°44'0 0.0
2017-May-20 11:57N 01°17' E 103°44'0 0.0
2017-May-20 11:27N 01°17' E 103°44'0 0.0
2017-May-20 10:57N 01°17' E 103°44'0 0.0
2017-May-20 10:24N 01°17' E 103°44'0 0.0
2017-May-20 09:57N 01°17' E 103°44'0 0.0
2017-May-20 09:30N 01°17' E 103°44'0 0.0
2017-May-20 08:57N 01°17' E 103°44'0 0.0
2017-May-20 08:30N 01°17' E 103°44'0 0.0
2017-May-20 07:57N 01°17' E 103°44'0 0.0
2017-May-20 07:30N 01°17' E 103°44'0 0.0
2017-May-20 06:57N 01°17' E 103°44'0 0.0
2017-May-20 06:30N 01°17' E 103°44'0 0.0
2017-May-20 05:57N 01°17' E 103°44'0 0.0
2017-May-20 05:30N 01°17' E 103°44'0 0.0
2017-May-20 04:57N 01°17' E 103°44'0 0.0
2017-May-20 04:30N 01°17' E 103°44'0 0.0
2017-May-20 03:57N 01°17' E 103°44'0 0.0
2017-May-20 03:30N 01°17' E 103°44'0 0.0
2017-May-20 02:57N 01°17' E 103°44'0 0.0
2017-May-20 02:30N 01°17' E 103°44'0 0.0
2017-May-20 02:00N 01°17' E 103°44'0 0.0
2017-May-20 01:30N 01°17' E 103°44'0 0.0
2017-May-20 00:57N 01°17' E 103°44'0 0.0
2017-May-20 00:30N 01°17' E 103°44'0 0.0
2017-May-20 00:00N 01°17' E 103°44'0 0.0
2017-May-19 23:27N 01°17' E 103°44'0 0.0
2017-May-19 23:00N 01°17' E 103°44'0 0.0
2017-May-19 22:30N 01°17' E 103°44'0 0.0
2017-May-19 22:00N 01°17' E 103°44'0 0.0
2017-May-19 21:30N 01°17' E 103°44'0 0.0
2017-May-19 21:00N 01°17' E 103°44'0 0.0
2017-May-19 20:27N 01°17' E 103°44'0 0.0
2017-May-19 20:00N 01°17' E 103°44'0 0.0
2017-May-19 19:30N 01°17' E 103°44'0 0.0
2017-May-19 19:00N 01°17' E 103°44'0 0.0
2017-May-19 18:30N 01°17' E 103°44'0 0.0
2017-May-19 18:00N 01°17' E 103°44'0 0.0
2017-May-19 17:27N 01°17' E 103°44'0 0.0
2017-May-19 17:00N 01°17' E 103°44'0 0.0
2017-May-19 16:27N 01°17' E 103°44'0 0.2
2017-May-19 16:00N 01°17' E 103°44'1 2.3
2017-May-19 15:31N 01°17' E 103°45'2 4.4
2017-May-19 15:01N 01°15' E 103°44'4 3.8
2017-May-19 13:59N 01°12' E 103°41'0 0.1
2017-May-19 13:29N 01°12' E 103°41'0 0.0
2017-May-19 12:47N 01°12' E 103°41'0 0.0
2017-May-19 12:29N 01°12' E 103°41'0 0.0
2017-May-19 11:56N 01°12' E 103°41'1 2.8
2017-May-19 11:30N 01°12' E 103°40'3 5.5
2017-May-19 11:00N 01°12' E 103°37'4 8.7
2017-May-19 10:30N 01°13' E 103°33'3 6.5
2017-May-19 10:00N 01°15' E 103°30'1 0.1
2017-May-19 03:21N 01°15' E 103°30'0 0.2
2017-May-19 03:00N 01°15' E 103°30'0 0.0
2017-May-19 01:18N 01°15' E 103°30'0 0.0
2017-May-18 19:42N 01°15' E 103°30'0 0.0
2017-May-18 19:09N 01°15' E 103°30'0 0.0
2017-May-18 18:57N 01°15' E 103°30'0 0.0
2017-May-18 10:45N 01°15' E 103°30'0 0.1
2017-May-18 10:30N 01°15' E 103°30'0 0.0
2017-May-18 04:42N 01°15' E 103°30'0 0.1
2017-May-18 04:24N 01°15' E 103°30'0 0.1
2017-May-18 03:51N 01°15' E 103°30'0 0.0
2017-May-18 01:55N 01°15' E 103°30'0 0.0
2017-May-18 01:31N 01°15' E 103°30'0 0.1
2017-May-18 01:00N 01°15' E 103°30'0 0.7
2017-May-18 00:30N 01°15' E 103°30'2 4.4
2017-May-18 00:01N 01°14' E 103°32'1 1.6
2017-May-17 23:31N 01°14' E 103°32'3 5.1
2017-May-17 22:59N 01°12' E 103°35'4 7.8
2017-May-17 22:30N 01°12' E 103°39'4 8.5
2017-May-17 21:59N 01°10' E 103°42'5 9.8
2017-May-17 21:30N 01°10' E 103°47'611.2
2017-May-17 21:00N 01°12' E 103°52'611.3
2017-May-17 20:30N 01°15' E 103°57'510.4
2017-May-17 20:00N 01°16' E 104°02'  

Dump ship's entire track history